Terminal Aerodrome Forecast
Issued by NWS

Home | Current Version | Previous Version | Text Only | Print | Product List | Glossary On
Versions: 1 2 3 4 5 6 7 8 9 10 11 12 13 14 15 16 17 18 19 20 21 22 23 24 25 26 27 28 29 30 31 32 33 34 35 36 37 38 39 40 41 42 43 44 45 46 47 48 49 50
000
FTUS45 KBOU 060804 AAB
TAFBJC
TAF AMD
KBJC 060804Z 0608/0706 32005KT P6SM SCT012 SCT020 BKN100
      TEMPO 0608/0610 3SM BR BKN012
     FM061100 29003KT P6SM VCFG SCT002 BKN080
     FM061600 12006KT P6SM SCT030 BKN080
     FM062000 02007KT P6SM SCT040 BKN060 OVC100
      TEMPO 0620/0624 VRB15G30KT 3SM TSRA BKN030CB
     FM070200 03008KT P6SM SCT015 OVC030=

USA.gov is the U.S. government's official web portal to all federal, state and local government web resources and services.